createdAt,value
2022-12-16T00:02:10.907Z,-7.80
2022-12-16T00:04:37.548Z,-7.90
2022-12-16T00:07:04.200Z,-7.90
2022-12-16T00:09:30.881Z,-7.80
2022-12-16T00:11:57.488Z,-7.80
2022-12-16T00:14:24.305Z,-7.80
2022-12-16T00:16:50.970Z,-7.80
2022-12-16T00:19:18.424Z,-7.70
2022-12-16T00:21:45.075Z,-7.60
2022-12-16T00:24:11.732Z,-7.60
2022-12-16T00:26:39.810Z,-7.60
2022-12-16T00:29:06.492Z,-7.50
2022-12-16T00:31:33.139Z,-7.50
2022-12-16T00:33:59.936Z,-7.50
2022-12-16T00:36:29.326Z,-7.50
2022-12-16T00:38:55.976Z,-7.50
2022-12-16T00:41:22.887Z,-7.50
2022-12-16T00:43:49.562Z,-7.60
2022-12-16T00:46:19.353Z,-7.60
2022-12-16T00:48:45.978Z,-7.70
2022-12-16T00:51:12.646Z,-7.80
2022-12-16T00:53:40.622Z,-7.80
2022-12-16T00:56:14.505Z,-7.80
2022-12-16T00:58:41.579Z,-7.90
2022-12-16T01:01:09.045Z,-8.00
2022-12-16T01:03:37.484Z,-8.00
2022-12-16T01:06:10.300Z,-8.00
2022-12-16T01:08:39.763Z,-8.10
2022-12-16T01:11:06.769Z,-8.30
2022-12-16T01:13:34.113Z,-8.30
2022-12-16T01:16:02.006Z,-8.40
2022-12-16T01:18:28.832Z,-8.60
2022-12-16T01:21:06.044Z,-8.70
2022-12-16T01:23:33.967Z,-8.60
2022-12-16T01:26:02.025Z,-8.70
2022-12-16T01:28:31.524Z,-8.70
2022-12-16T01:31:01.671Z,-8.80
2022-12-16T01:33:30.547Z,-9.00
2022-12-16T01:36:08.816Z,-9.20
2022-12-16T01:38:38.864Z,-9.40
2022-12-16T01:41:13.277Z,-9.60
2022-12-16T01:43:43.384Z,-9.80
2022-12-16T01:46:21.498Z,-9.90
2022-12-16T01:49:05.664Z,-10.00
2022-12-16T01:51:38.315Z,-10.00
2022-12-16T01:54:20.365Z,-10.00
2022-12-16T01:56:59.453Z,-10.00
2022-12-16T01:59:30.381Z,-10.00
2022-12-16T02:01:58.337Z,-10.00
2022-12-16T02:04:25.298Z,-9.80
2022-12-16T02:06:52.368Z,-9.90
2022-12-16T02:09:19.504Z,-9.90
2022-12-16T02:12:25.492Z,-10.00
2022-12-16T02:15:20.224Z,-10.00
2022-12-16T02:17:57.939Z,-9.90
2022-12-16T02:20:57.369Z,-9.90
2022-12-16T02:23:39.367Z,-9.90
2022-12-16T02:26:55.294Z,-9.90
2022-12-16T02:29:33.237Z,-9.90
2022-12-16T02:32:25.913Z,-10.00
2022-12-16T02:35:05.808Z,-9.90
2022-12-16T02:37:35.202Z,-9.80
2022-12-16T02:40:09.261Z,-9.80
2022-12-16T02:42:44.879Z,-9.80
2022-12-16T02:45:30.589Z,-9.60
2022-12-16T02:47:57.297Z,-9.60
2022-12-16T02:50:27.026Z,-9.60
2022-12-16T02:52:56.104Z,-9.60
2022-12-16T02:55:51.554Z,-9.60
2022-12-16T02:58:46.930Z,-9.70
2022-12-16T03:01:29.155Z,-9.70
2022-12-16T03:04:15.796Z,-9.80
2022-12-16T03:06:49.042Z,-9.80
2022-12-16T03:09:20.929Z,-9.70
2022-12-16T03:11:49.550Z,-9.70
2022-12-16T03:14:19.144Z,-9.70
2022-12-16T03:16:47.682Z,-9.70
2022-12-16T03:19:14.430Z,-9.60
2022-12-16T03:21:54.850Z,-9.70
2022-12-16T03:24:21.823Z,-9.60
2022-12-16T03:27:03.499Z,-9.60
2022-12-16T03:29:39.248Z,-9.60
2022-12-16T03:32:13.738Z,-9.80
2022-12-16T03:34:46.980Z,-10.00
2022-12-16T03:37:14.270Z,-9.90
2022-12-16T03:39:50.477Z,-10.10
2022-12-16T03:42:17.933Z,-10.20
2022-12-16T03:44:46.495Z,-10.20
2022-12-16T03:47:21.531Z,-10.30
2022-12-16T03:49:50.188Z,-10.40
2022-12-16T03:52:19.589Z,-10.50
2022-12-16T03:54:46.246Z,-10.60
2022-12-16T03:57:15.637Z,-10.70
2022-12-16T03:59:42.940Z,-10.90
2022-12-16T04:02:09.910Z,-10.90
2022-12-16T04:04:36.792Z,-11.00
2022-12-16T04:07:21.713Z,-11.10
2022-12-16T04:09:49.916Z,-11.20
2022-12-16T04:12:35.054Z,-11.20
2022-12-16T04:15:20.080Z,-11.20
2022-12-16T04:18:05.236Z,-11.20
2022-12-16T04:20:55.024Z,-11.10
2022-12-16T04:23:42.548Z,-11.10
2022-12-16T04:26:09.503Z,-11.10
2022-12-16T04:28:36.148Z,-11.00
2022-12-16T04:31:03.534Z,-11.10
2022-12-16T04:33:56.531Z,-11.20
2022-12-16T04:36:42.047Z,-11.20
2022-12-16T04:39:27.694Z,-11.20
2022-12-16T04:42:17.163Z,-11.10
2022-12-16T04:45:10.553Z,-11.20
2022-12-16T04:47:57.610Z,-11.40
2022-12-16T04:50:43.281Z,-11.50
2022-12-16T04:53:29.131Z,-11.50
2022-12-16T04:56:17.413Z,-11.40
2022-12-16T04:59:02.676Z,-11.20
2022-12-16T05:01:48.260Z,-10.90
2022-12-16T05:04:34.658Z,-10.80
2022-12-16T05:07:20.152Z,-10.80
2022-12-16T05:10:05.542Z,-10.70
2022-12-16T05:12:51.065Z,-10.90
2022-12-16T05:15:36.419Z,-11.10
2022-12-16T05:18:33.108Z,-11.20
2022-12-16T05:21:20.259Z,-11.20
2022-12-16T05:24:06.632Z,-11.40
2022-12-16T05:26:52.005Z,-11.40
2022-12-16T05:29:43.499Z,-11.40
2022-12-16T05:32:29.078Z,-11.40
2022-12-16T05:35:14.455Z,-11.50
2022-12-16T05:37:59.816Z,-11.60
2022-12-16T05:40:45.325Z,-11.70
2022-12-16T05:43:31.180Z,-11.80
2022-12-16T05:46:16.938Z,-11.90
2022-12-16T05:49:02.485Z,-11.90
2022-12-16T05:51:47.919Z,-11.90
2022-12-16T05:54:33.430Z,-11.70
2022-12-16T05:57:18.723Z,-11.60
2022-12-16T06:00:04.001Z,-11.70
2022-12-16T06:02:49.673Z,-11.70
2022-12-16T06:05:34.921Z,-11.80
2022-12-16T06:08:20.471Z,-11.90
2022-12-16T06:11:05.907Z,-11.90
2022-12-16T06:13:51.226Z,-11.80
2022-12-16T06:16:36.748Z,-11.70
2022-12-16T06:19:22.115Z,-11.80
2022-12-16T06:22:07.476Z,-11.80
2022-12-16T06:24:53.016Z,-11.90
2022-12-16T06:27:38.580Z,-11.70
2022-12-16T06:30:24.570Z,-11.70
2022-12-16T06:33:13.241Z,-11.80
2022-12-16T06:35:58.741Z,-11.80
2022-12-16T06:38:44.269Z,-11.80
2022-12-16T06:41:29.535Z,-11.80
2022-12-16T06:44:17.091Z,-12.00
2022-12-16T06:47:02.530Z,-11.90
2022-12-16T06:50:07.653Z,-12.00
2022-12-16T06:52:52.963Z,-11.90
2022-12-16T06:55:40.255Z,-12.00
2022-12-16T06:58:25.280Z,-12.00
2022-12-16T07:01:10.340Z,-12.10
2022-12-16T07:03:55.686Z,-12.10
2022-12-16T07:06:41.794Z,-12.10
2022-12-16T07:09:26.954Z,-12.20
2022-12-16T07:12:12.353Z,-12.20
2022-12-16T07:14:57.575Z,-12.10
2022-12-16T07:17:42.624Z,-12.00
2022-12-16T07:20:42.089Z,-11.90
2022-12-16T07:23:27.780Z,-11.90
2022-12-16T07:26:13.177Z,-11.90
2022-12-16T07:28:58.573Z,-11.90
2022-12-16T07:31:44.186Z,-12.00
2022-12-16T07:34:29.464Z,-11.90
2022-12-16T07:37:14.892Z,-11.90
2022-12-16T07:40:00.447Z,-11.80
2022-12-16T07:42:45.814Z,-11.80
2022-12-16T07:45:31.203Z,-11.80
2022-12-16T07:48:16.663Z,-11.80
2022-12-16T07:51:02.089Z,-11.80
2022-12-16T07:53:47.664Z,-11.70
2022-12-16T07:56:33.763Z,-11.50
2022-12-16T07:59:26.339Z,-11.20
2022-12-16T08:02:11.928Z,-10.90
2022-12-16T08:04:57.175Z,-10.70
2022-12-16T08:07:44.868Z,-10.50
2022-12-16T08:10:30.172Z,-10.30
2022-12-16T08:13:25.771Z,-10.10
2022-12-16T08:16:11.559Z,-9.80
2022-12-16T08:19:07.713Z,-9.60
2022-12-16T08:21:56.382Z,-9.30
2022-12-16T08:24:41.691Z,-9.00
2022-12-16T08:27:27.116Z,-8.60
2022-12-16T08:30:12.616Z,-8.30
2022-12-16T08:33:03.315Z,-8.00
2022-12-16T08:35:52.530Z,-7.80
2022-12-16T08:38:38.744Z,-7.40
2022-12-16T08:41:26.726Z,-7.20
2022-12-16T08:44:16.722Z,-6.80
2022-12-16T08:47:02.249Z,-6.40
2022-12-16T08:49:47.727Z,-5.90
2022-12-16T08:52:33.176Z,-5.50
2022-12-16T08:55:18.561Z,-5.20
2022-12-16T08:58:14.755Z,-4.80
2022-12-16T09:01:06.288Z,-4.40
2022-12-16T09:03:53.012Z,-4.00
2022-12-16T09:06:40.623Z,-3.70
2022-12-16T09:09:25.822Z,-3.50
2022-12-16T09:12:11.184Z,-3.10
2022-12-16T09:14:56.423Z,-2.80
2022-12-16T09:17:41.917Z,-2.40
2022-12-16T09:20:27.967Z,-2.00
2022-12-16T09:23:13.383Z,-1.80
2022-12-16T09:25:59.384Z,-1.50
2022-12-16T09:28:45.750Z,-1.40
2022-12-16T09:31:31.212Z,-1.20
2022-12-16T09:34:16.989Z,-1.20
2022-12-16T09:37:02.726Z,-0.90
2022-12-16T09:39:48.039Z,-0.90
2022-12-16T09:43:06.063Z,-0.50
2022-12-16T09:46:16.247Z,-0.20
2022-12-16T09:49:14.766Z,-0.10
2022-12-16T09:52:02.184Z,-0.20
2022-12-16T09:54:50.673Z,-0.20
2022-12-16T09:57:37.789Z,0.00
2022-12-16T10:00:32.694Z,0.10
2022-12-16T10:03:19.476Z,0.20
2022-12-16T10:06:08.450Z,0.50
2022-12-16T10:09:18.426Z,0.80
2022-12-16T10:12:26.579Z,1.00
2022-12-16T10:15:55.284Z,1.20
2022-12-16T10:19:11.506Z,1.50
2022-12-16T10:22:16.988Z,1.60
2022-12-16T10:25:49.544Z,1.80
2022-12-16T10:28:37.108Z,1.70
2022-12-16T10:31:31.875Z,1.50
2022-12-16T10:34:17.630Z,1.50
2022-12-16T10:37:10.964Z,1.40
2022-12-16T10:40:08.746Z,1.60
2022-12-16T10:43:25.656Z,1.60
2022-12-16T10:46:14.235Z,1.50
2022-12-16T10:49:13.648Z,2.00
2022-12-16T10:52:09.183Z,2.20
2022-12-16T10:55:01.499Z,2.50
2022-12-16T10:58:04.201Z,2.80
2022-12-16T11:01:06.084Z,2.80
2022-12-16T11:03:56.393Z,2.80
2022-12-16T11:06:58.544Z,2.70
2022-12-16T11:09:49.670Z,3.10
2022-12-16T11:12:47.166Z,3.30
2022-12-16T11:15:50.538Z,3.40
2022-12-16T11:18:40.943Z,3.60
2022-12-16T11:21:35.068Z,3.90
2022-12-16T11:24:31.133Z,4.20
2022-12-16T11:27:25.342Z,4.30
2022-12-16T11:30:30.965Z,4.30
2022-12-16T11:33:36.023Z,4.20
2022-12-16T11:36:39.279Z,4.20
2022-12-16T11:39:26.345Z,4.70
2022-12-16T11:42:17.894Z,5.20
2022-12-16T11:45:10.863Z,5.40
2022-12-16T11:48:02.459Z,5.70
2022-12-16T11:50:50.508Z,5.60
2022-12-16T11:54:01.594Z,5.20
2022-12-16T11:56:51.255Z,5.30
2022-12-16T12:00:20.440Z,5.10
2022-12-16T12:03:14.745Z,4.50
2022-12-16T12:06:12.210Z,4.20
2022-12-16T12:09:19.002Z,3.80
2022-12-16T12:12:13.655Z,4.10
2022-12-16T12:15:30.810Z,4.30
2022-12-16T12:18:57.305Z,4.30
2022-12-16T12:21:52.017Z,4.30
2022-12-16T12:25:08.950Z,4.30
2022-12-16T12:28:00.555Z,3.70
2022-12-16T12:30:45.938Z,3.40
2022-12-16T12:33:57.053Z,3.20
2022-12-16T12:37:22.561Z,3.70
2022-12-16T12:40:35.174Z,3.80
2022-12-16T12:43:31.909Z,4.30
2022-12-16T12:46:58.368Z,4.60
2022-12-16T12:50:09.135Z,4.50
2022-12-16T12:53:26.131Z,4.30
2022-12-16T12:56:18.234Z,4.50
2022-12-16T12:59:05.512Z,3.90
2022-12-16T13:01:56.150Z,4.20
2022-12-16T13:04:45.765Z,4.10
2022-12-16T13:07:31.485Z,4.10
2022-12-16T13:10:46.450Z,4.20
2022-12-16T13:13:34.934Z,4.20
2022-12-16T13:16:27.623Z,3.80
2022-12-16T13:19:50.295Z,3.10
2022-12-16T13:22:51.206Z,2.40
2022-12-16T13:25:51.795Z,1.80
2022-12-16T13:28:45.043Z,1.40
2022-12-16T13:31:30.967Z,1.10
2022-12-16T13:34:24.107Z,0.90
2022-12-16T13:37:20.803Z,0.70
2022-12-16T13:40:31.883Z,0.50
2022-12-16T13:43:23.262Z,0.50
2022-12-16T13:46:23.968Z,0.50
2022-12-16T13:49:09.323Z,0.50
2022-12-16T13:51:57.286Z,0.40
2022-12-16T13:54:50.058Z,0.30
2022-12-16T13:57:39.273Z,0.10
2022-12-16T14:00:39.476Z,0.10
2022-12-16T14:03:43.222Z,0.00
2022-12-16T14:06:35.956Z,-0.10
2022-12-16T14:09:23.081Z,-0.20
2022-12-16T14:12:21.077Z,-0.30
2022-12-16T14:15:20.223Z,-0.40
2022-12-16T14:18:29.392Z,-0.50
2022-12-16T14:21:19.326Z,-0.60
2022-12-16T14:24:42.845Z,-0.60
2022-12-16T14:27:38.208Z,-0.70
2022-12-16T14:30:35.009Z,-0.90
2022-12-16T14:33:45.990Z,-1.00
2022-12-16T14:36:45.794Z,-1.00
2022-12-16T14:39:46.072Z,-1.20
2022-12-16T14:42:53.535Z,-1.30
2022-12-16T14:45:56.132Z,-1.40
2022-12-16T14:48:52.743Z,-1.60
2022-12-16T14:51:50.345Z,-1.70
2022-12-16T14:54:38.850Z,-1.80
2022-12-16T14:57:30.129Z,-1.90
2022-12-16T15:00:23.021Z,-2.00
2022-12-16T15:03:14.850Z,-2.00
2022-12-16T15:06:02.171Z,-2.10
2022-12-16T15:08:53.794Z,-2.30
2022-12-16T15:11:43.489Z,-2.50
2022-12-16T15:14:31.742Z,-2.70
2022-12-16T15:17:17.509Z,-2.80
2022-12-16T15:20:07.258Z,-3.00
2022-12-16T15:22:53.874Z,-3.00
2022-12-16T15:25:42.028Z,-3.10
2022-12-16T15:28:59.424Z,-3.30
2022-12-16T15:31:49.477Z,-3.60
2022-12-16T15:35:05.213Z,-3.70
2022-12-16T15:38:03.612Z,-3.90
2022-12-16T15:40:52.062Z,-4.10
2022-12-16T15:43:56.134Z,-4.30
2022-12-16T15:46:45.832Z,-4.40
2022-12-16T15:49:53.099Z,-4.60
2022-12-16T15:52:57.978Z,-4.90
2022-12-16T15:55:52.582Z,-5.00
2022-12-16T15:58:38.024Z,-5.10
2022-12-16T16:01:27.481Z,-5.30
2022-12-16T16:04:16.442Z,-5.40
2022-12-16T16:07:09.096Z,-5.60
2022-12-16T16:10:00.724Z,-5.70
2022-12-16T16:12:46.142Z,-5.80
2022-12-16T16:15:33.233Z,-5.70
2022-12-16T16:18:21.673Z,-5.60
2022-12-16T16:21:07.638Z,-5.60
2022-12-16T16:23:53.109Z,-5.60
2022-12-16T16:26:41.357Z,-5.60
2022-12-16T16:29:29.125Z,-5.60
2022-12-16T16:32:14.519Z,-5.70
2022-12-16T16:34:59.897Z,-5.70
2022-12-16T16:37:45.327Z,-5.70
2022-12-16T16:40:47.303Z,-5.70
2022-12-16T16:43:33.256Z,-5.90
2022-12-16T16:46:18.891Z,-6.10
2022-12-16T16:49:04.310Z,-6.20
2022-12-16T16:51:49.789Z,-6.00
2022-12-16T16:54:35.343Z,-5.90
2022-12-16T16:57:21.020Z,-6.10
2022-12-16T17:00:07.351Z,-6.30
2022-12-16T17:02:52.861Z,-6.30
2022-12-16T17:05:38.160Z,-6.30
2022-12-16T17:08:23.625Z,-6.20
2022-12-16T17:11:09.132Z,-6.20
2022-12-16T17:13:55.503Z,-6.10
2022-12-16T17:16:43.835Z,-6.20
2022-12-16T17:19:33.455Z,-6.30
2022-12-16T17:22:18.693Z,-6.30
2022-12-16T17:25:05.134Z,-6.30
2022-12-16T17:27:50.617Z,-6.30
2022-12-16T17:30:46.908Z,-6.30
2022-12-16T17:33:36.112Z,-6.40
2022-12-16T17:36:21.706Z,-6.60
2022-12-16T17:39:07.875Z,-6.80
2022-12-16T17:41:53.174Z,-7.10
2022-12-16T17:44:38.698Z,-7.40
2022-12-16T17:47:29.812Z,-7.50
2022-12-16T17:50:15.216Z,-7.40
2022-12-16T17:53:00.727Z,-7.40
2022-12-16T17:55:46.229Z,-7.50
2022-12-16T17:58:31.651Z,-7.40
2022-12-16T18:01:25.448Z,-7.50
2022-12-16T18:04:11.008Z,-7.50
2022-12-16T18:06:56.770Z,-7.60
2022-12-16T18:09:42.103Z,-7.80
2022-12-16T18:12:27.690Z,-8.00
2022-12-16T18:15:13.107Z,-8.00
2022-12-16T18:17:58.457Z,-7.90
2022-12-16T18:20:43.845Z,-7.90
2022-12-16T18:23:31.723Z,-7.90
2022-12-16T18:26:18.822Z,-8.00
2022-12-16T18:29:04.289Z,-8.10
2022-12-16T18:31:49.595Z,-8.20
2022-12-16T18:34:42.124Z,-8.30
2022-12-16T18:37:30.737Z,-8.30
2022-12-16T18:40:16.260Z,-8.20
2022-12-16T18:43:04.178Z,-8.00
2022-12-16T18:45:52.335Z,-7.90
2022-12-16T18:48:37.452Z,-7.90
2022-12-16T18:51:23.010Z,-7.80
2022-12-16T18:54:11.037Z,-7.80
2022-12-16T18:56:56.383Z,-8.00
2022-12-16T18:59:41.939Z,-8.20
2022-12-16T19:02:28.031Z,-8.40
2022-12-16T19:05:13.663Z,-8.70
2022-12-16T19:07:58.807Z,-8.80
2022-12-16T19:10:44.186Z,-8.80
2022-12-16T19:13:35.875Z,-8.80
2022-12-16T19:16:22.512Z,-8.90
2022-12-16T19:19:07.809Z,-9.10
2022-12-16T19:21:56.547Z,-9.20
2022-12-16T19:24:43.297Z,-9.20
2022-12-16T19:27:29.041Z,-9.20
2022-12-16T19:30:14.171Z,-9.10
2022-12-16T19:32:59.888Z,-9.10
2022-12-16T19:35:45.426Z,-9.10
2022-12-16T19:38:32.609Z,-9.10
2022-12-16T19:41:17.950Z,-9.20
2022-12-16T19:44:05.987Z,-9.30
2022-12-16T19:46:53.394Z,-9.40
2022-12-16T19:49:44.417Z,-9.50
2022-12-16T19:52:30.520Z,-9.50
2022-12-16T19:55:17.605Z,-9.50
2022-12-16T19:58:22.078Z,-9.50
2022-12-16T20:01:07.603Z,-9.60
2022-12-16T20:03:56.645Z,-9.70
2022-12-16T20:06:42.258Z,-9.80
2022-12-16T20:09:30.890Z,-9.70
2022-12-16T20:12:16.804Z,-9.60
2022-12-16T20:15:02.139Z,-9.50
2022-12-16T20:17:47.521Z,-9.50
2022-12-16T20:20:32.952Z,-9.50
2022-12-16T20:23:18.401Z,-9.50
2022-12-16T20:26:15.482Z,-9.40
2022-12-16T20:29:00.803Z,-9.30
2022-12-16T20:31:46.445Z,-9.20
2022-12-16T20:34:35.189Z,-9.20
2022-12-16T20:37:20.625Z,-9.30
2022-12-16T20:40:06.267Z,-9.50
2022-12-16T20:42:53.293Z,-9.70
2022-12-16T20:45:38.827Z,-9.80
2022-12-16T20:48:24.329Z,-10.00
2022-12-16T20:51:24.288Z,-10.00
2022-12-16T20:54:11.993Z,-10.10
2022-12-16T20:56:57.341Z,-10.00
2022-12-16T20:59:44.259Z,-9.80
2022-12-16T21:02:34.207Z,-9.80
2022-12-16T21:05:21.449Z,-9.80
2022-12-16T21:08:06.802Z,-9.90
2022-12-16T21:10:52.270Z,-10.00
2022-12-16T21:13:38.074Z,-10.20
2022-12-16T21:16:24.974Z,-10.30
2022-12-16T21:19:11.207Z,-10.40
2022-12-16T21:21:56.929Z,-10.40
2022-12-16T21:24:42.614Z,-10.30
2022-12-16T21:27:28.077Z,-10.30
2022-12-16T21:30:13.583Z,-10.30
2022-12-16T21:33:06.781Z,-10.40
2022-12-16T21:35:54.355Z,-10.50
2022-12-16T21:38:41.769Z,-10.60
2022-12-16T21:41:27.162Z,-10.70
2022-12-16T21:44:12.405Z,-10.80
2022-12-16T21:46:57.738Z,-10.80
2022-12-16T21:49:43.155Z,-10.70
2022-12-16T21:52:28.583Z,-10.60
2022-12-16T21:55:13.998Z,-10.50
2022-12-16T21:58:01.439Z,-10.50
2022-12-16T22:00:47.121Z,-10.50
2022-12-16T22:03:32.521Z,-10.50
2022-12-16T22:06:18.452Z,-10.60
2022-12-16T22:09:03.807Z,-10.60
2022-12-16T22:11:49.432Z,-10.70
2022-12-16T22:14:35.027Z,-10.60
2022-12-16T22:17:23.168Z,-10.60
2022-12-16T22:20:08.381Z,-10.50
2022-12-16T22:22:54.675Z,-10.40
2022-12-16T22:25:41.560Z,-10.40
2022-12-16T22:28:27.006Z,-10.50
2022-12-16T22:31:16.001Z,-10.60
2022-12-16T22:34:02.252Z,-10.70
2022-12-16T22:36:47.750Z,-10.70
2022-12-16T22:39:41.353Z,-10.90
2022-12-16T22:42:29.741Z,-11.00
2022-12-16T22:45:17.826Z,-11.10
2022-12-16T22:48:03.191Z,-11.20
2022-12-16T22:50:52.318Z,-11.30
2022-12-16T22:53:42.279Z,-11.30
2022-12-16T22:56:27.521Z,-11.40
2022-12-16T22:59:13.111Z,-11.40
2022-12-16T23:01:58.485Z,-11.40
2022-12-16T23:04:47.347Z,-11.40
2022-12-16T23:07:32.528Z,-11.50
2022-12-16T23:10:18.302Z,-11.50
2022-12-16T23:13:04.205Z,-11.50
2022-12-16T23:15:49.593Z,-11.50
2022-12-16T23:18:34.726Z,-11.50
2022-12-16T23:21:20.159Z,-11.50
2022-12-16T23:24:10.872Z,-11.50
2022-12-16T23:26:56.200Z,-11.50
2022-12-16T23:29:41.698Z,-11.50
2022-12-16T23:32:27.319Z,-11.30
2022-12-16T23:35:15.280Z,-11.20
2022-12-16T23:38:00.739Z,-11.00
2022-12-16T23:40:48.922Z,-11.00
2022-12-16T23:43:34.099Z,-11.00
2022-12-16T23:46:24.396Z,-11.10
2022-12-16T23:49:11.766Z,-11.10
2022-12-16T23:51:57.010Z,-11.20
2022-12-16T23:54:42.506Z,-11.30
2022-12-16T23:57:30.580Z,-11.30
